sensor_id;sensor_type;location;lat;lon;timestamp;temperature;humidity
5689;DHT22;2869;50.432;8.680;2022-11-15T00:02:18;8.60;99.90
5689;DHT22;2869;50.432;8.680;2022-11-15T00:04:46;8.70;99.90
5689;DHT22;2869;50.432;8.680;2022-11-15T00:07:13;8.70;99.90
5689;DHT22;2869;50.432;8.680;2022-11-15T00:09:39;8.70;99.90
5689;DHT22;2869;50.432;8.680;2022-11-15T00:12:06;8.70;99.90
5689;DHT22;2869;50.432;8.680;2022-11-15T00:14:33;8.70;99.90
5689;DHT22;2869;50.432;8.680;2022-11-15T00:16:59;8.70;99.90
5689;DHT22;2869;50.432;8.680;2022-11-15T00:19:26;8.70;99.90
5689;DHT22;2869;50.432;8.680;2022-11-15T00:21:54;8.70;99.90
5689;DHT22;2869;50.432;8.680;2022-11-15T00:24:21;8.70;99.90
5689;DHT22;2869;50.432;8.680;2022-11-15T00:26:47;8.80;99.90
5689;DHT22;2869;50.432;8.680;2022-11-15T00:29:14;8.80;99.90
5689;DHT22;2869;50.432;8.680;2022-11-15T00:31:41;8.80;99.90
5689;DHT22;2869;50.432;8.680;2022-11-15T00:34:08;8.80;99.90
5689;DHT22;2869;50.432;8.680;2022-11-15T00:36:35;8.90;99.90
5689;DHT22;2869;50.432;8.680;2022-11-15T00:39:05;9.00;99.90
5689;DHT22;2869;50.432;8.680;2022-11-15T00:41:31;9.00;99.90
5689;DHT22;2869;50.432;8.680;2022-11-15T00:43:58;9.10;99.90
5689;DHT22;2869;50.432;8.680;2022-11-15T00:46:25;9.10;99.90
5689;DHT22;2869;50.432;8.680;2022-11-15T00:48:51;9.10;99.90
5689;DHT22;2869;50.432;8.680;2022-11-15T00:51:18;9.20;99.90
5689;DHT22;2869;50.432;8.680;2022-11-15T00:53:45;9.30;99.90
5689;DHT22;2869;50.432;8.680;2022-11-15T00:56:13;9.30;99.90
5689;DHT22;2869;50.432;8.680;2022-11-15T00:58:39;9.40;99.90
5689;DHT22;2869;50.432;8.680;2022-11-15T01:01:08;9.40;99.90
5689;DHT22;2869;50.432;8.680;2022-11-15T01:03:35;9.50;99.90
5689;DHT22;2869;50.432;8.680;2022-11-15T01:06:02;9.50;99.90
5689;DHT22;2869;50.432;8.680;2022-11-15T01:08:29;9.50;99.90
5689;DHT22;2869;50.432;8.680;2022-11-15T01:11:00;9.50;99.90
5689;DHT22;2869;50.432;8.680;2022-11-15T01:13:31;9.50;99.90
5689;DHT22;2869;50.432;8.680;2022-11-15T01:15:58;9.60;99.90
5689;DHT22;2869;50.432;8.680;2022-11-15T01:18:25;9.60;99.90
5689;DHT22;2869;50.432;8.680;2022-11-15T01:20:51;9.60;99.90
5689;DHT22;2869;50.432;8.680;2022-11-15T01:23:18;9.60;99.90
5689;DHT22;2869;50.432;8.680;2022-11-15T01:25:45;9.60;99.90
5689;DHT22;2869;50.432;8.680;2022-11-15T01:28:11;9.60;99.90
5689;DHT22;2869;50.432;8.680;2022-11-15T01:30:39;9.60;99.90
5689;DHT22;2869;50.432;8.680;2022-11-15T01:33:06;9.60;99.90
5689;DHT22;2869;50.432;8.680;2022-11-15T01:35:33;9.70;99.90
5689;DHT22;2869;50.432;8.680;2022-11-15T01:37:59;9.80;99.90
5689;DHT22;2869;50.432;8.680;2022-11-15T01:40:26;9.80;99.90
5689;DHT22;2869;50.432;8.680;2022-11-15T01:42:53;9.90;99.90
5689;DHT22;2869;50.432;8.680;2022-11-15T01:45:19;9.90;99.90
5689;DHT22;2869;50.432;8.680;2022-11-15T01:47:50;9.90;99.90
5689;DHT22;2869;50.432;8.680;2022-11-15T01:50:21;9.90;99.90
5689;DHT22;2869;50.432;8.680;2022-11-15T01:52:48;9.90;99.90
5689;DHT22;2869;50.432;8.680;2022-11-15T01:55:18;9.90;99.90
5689;DHT22;2869;50.432;8.680;2022-11-15T01:57:47;9.90;99.90
5689;DHT22;2869;50.432;8.680;2022-11-15T02:00:15;9.90;99.90
5689;DHT22;2869;50.432;8.680;2022-11-15T02:02:43;10.00;99.90
5689;DHT22;2869;50.432;8.680;2022-11-15T02:05:11;10.00;99.90
5689;DHT22;2869;50.432;8.680;2022-11-15T02:07:38;10.00;99.90
5689;DHT22;2869;50.432;8.680;2022-11-15T02:10:08;10.00;99.90
5689;DHT22;2869;50.432;8.680;2022-11-15T02:12:35;10.00;99.90
5689;DHT22;2869;50.432;8.680;2022-11-15T02:15:03;9.90;99.90
5689;DHT22;2869;50.432;8.680;2022-11-15T02:17:43;9.90;99.90
5689;DHT22;2869;50.432;8.680;2022-11-15T02:20:53;9.90;99.90
5689;DHT22;2869;50.432;8.680;2022-11-15T02:26:47;9.90;99.90
5689;DHT22;2869;50.432;8.680;2022-11-15T02:29:23;9.90;99.90
5689;DHT22;2869;50.432;8.680;2022-11-15T02:32:00;9.90;99.90
5689;DHT22;2869;50.432;8.680;2022-11-15T02:34:37;9.90;99.90
5689;DHT22;2869;50.432;8.680;2022-11-15T02:37:13;9.90;99.90
5689;DHT22;2869;50.432;8.680;2022-11-15T02:39:50;9.90;99.90
5689;DHT22;2869;50.432;8.680;2022-11-15T02:42:21;9.90;99.90
5689;DHT22;2869;50.432;8.680;2022-11-15T02:45:11;9.90;99.90
5689;DHT22;2869;50.432;8.680;2022-11-15T02:47:43;9.90;99.90
5689;DHT22;2869;50.432;8.680;2022-11-15T02:50:13;9.80;99.90
5689;DHT22;2869;50.432;8.680;2022-11-15T02:52:44;9.80;99.90
5689;DHT22;2869;50.432;8.680;2022-11-15T02:55:26;9.80;99.90
5689;DHT22;2869;50.432;8.680;2022-11-15T02:58:02;9.80;99.90
5689;DHT22;2869;50.432;8.680;2022-11-15T03:00:35;9.80;99.90
5689;DHT22;2869;50.432;8.680;2022-11-15T03:03:18;9.80;99.90
5689;DHT22;2869;50.432;8.680;2022-11-15T03:05:53;9.80;99.90
5689;DHT22;2869;50.432;8.680;2022-11-15T03:08:28;9.80;99.90
5689;DHT22;2869;50.432;8.680;2022-11-15T03:11:03;9.80;99.90
5689;DHT22;2869;50.432;8.680;2022-11-15T03:13:35;9.80;99.90
5689;DHT22;2869;50.432;8.680;2022-11-15T03:16:07;9.80;99.90
5689;DHT22;2869;50.432;8.680;2022-11-15T03:18:38;9.80;99.90
5689;DHT22;2869;50.432;8.680;2022-11-15T03:21:08;9.80;99.90
5689;DHT22;2869;50.432;8.680;2022-11-15T03:23:39;9.80;99.90
5689;DHT22;2869;50.432;8.680;2022-11-15T03:26:08;9.80;99.90
5689;DHT22;2869;50.432;8.680;2022-11-15T03:28:38;9.80;99.90
5689;DHT22;2869;50.432;8.680;2022-11-15T03:31:06;9.80;99.90
5689;DHT22;2869;50.432;8.680;2022-11-15T03:33:49;9.80;99.90
5689;DHT22;2869;50.432;8.680;2022-11-15T03:36:17;9.90;99.90
5689;DHT22;2869;50.432;8.680;2022-11-15T03:38:44;9.80;99.90
5689;DHT22;2869;50.432;8.680;2022-11-15T03:41:16;9.80;99.90
5689;DHT22;2869;50.432;8.680;2022-11-15T03:43:50;9.80;99.90
5689;DHT22;2869;50.432;8.680;2022-11-15T03:46:24;9.90;99.90
5689;DHT22;2869;50.432;8.680;2022-11-15T03:48:59;9.80;99.90
5689;DHT22;2869;50.432;8.680;2022-11-15T03:51:26;9.80;99.90
5689;DHT22;2869;50.432;8.680;2022-11-15T03:53:53;9.80;99.90
5689;DHT22;2869;50.432;8.680;2022-11-15T03:56:20;9.80;99.90
5689;DHT22;2869;50.432;8.680;2022-11-15T03:58:46;9.80;99.90
5689;DHT22;2869;50.432;8.680;2022-11-15T04:01:13;9.80;99.90
5689;DHT22;2869;50.432;8.680;2022-11-15T04:03:40;9.80;99.90
5689;DHT22;2869;50.432;8.680;2022-11-15T04:06:08;9.80;99.90
5689;DHT22;2869;50.432;8.680;2022-11-15T04:08:34;9.80;99.90
5689;DHT22;2869;50.432;8.680;2022-11-15T04:11:01;9.80;99.90
5689;DHT22;2869;50.432;8.680;2022-11-15T04:13:28;9.80;99.90
5689;DHT22;2869;50.432;8.680;2022-11-15T04:15:54;9.80;99.90
5689;DHT22;2869;50.432;8.680;2022-11-15T04:18:21;9.70;99.90
5689;DHT22;2869;50.432;8.680;2022-11-15T04:20:48;9.70;99.90
5689;DHT22;2869;50.432;8.680;2022-11-15T04:23:33;9.60;99.90
5689;DHT22;2869;50.432;8.680;2022-11-15T04:26:20;9.60;99.90
5689;DHT22;2869;50.432;8.680;2022-11-15T04:28:48;9.60;99.90
5689;DHT22;2869;50.432;8.680;2022-11-15T04:31:32;9.50;99.90
5689;DHT22;2869;50.432;8.680;2022-11-15T04:33:59;9.50;99.90
5689;DHT22;2869;50.432;8.680;2022-11-15T04:36:26;9.50;99.90
5689;DHT22;2869;50.432;8.680;2022-11-15T04:39:11;9.40;99.90
5689;DHT22;2869;50.432;8.680;2022-11-15T04:41:38;9.40;99.90
5689;DHT22;2869;50.432;8.680;2022-11-15T04:44:04;9.30;99.90
5689;DHT22;2869;50.432;8.680;2022-11-15T04:46:31;9.30;99.90
5689;DHT22;2869;50.432;8.680;2022-11-15T04:48:58;9.30;99.90
5689;DHT22;2869;50.432;8.680;2022-11-15T04:51:25;9.30;99.90
5689;DHT22;2869;50.432;8.680;2022-11-15T04:53:51;9.20;99.90
5689;DHT22;2869;50.432;8.680;2022-11-15T04:56:19;9.20;99.90
5689;DHT22;2869;50.432;8.680;2022-11-15T04:58:48;9.10;99.90
5689;DHT22;2869;50.432;8.680;2022-11-15T05:01:15;9.10;99.90
5689;DHT22;2869;50.432;8.680;2022-11-15T05:03:42;9.00;99.90
5689;DHT22;2869;50.432;8.680;2022-11-15T05:06:27;9.00;99.90
5689;DHT22;2869;50.432;8.680;2022-11-15T05:08:54;8.90;99.90
5689;DHT22;2869;50.432;8.680;2022-11-15T05:11:22;8.80;99.90
5689;DHT22;2869;50.432;8.680;2022-11-15T05:13:49;8.80;99.90
5689;DHT22;2869;50.432;8.680;2022-11-15T05:16:15;8.70;99.90
5689;DHT22;2869;50.432;8.680;2022-11-15T05:18:42;8.70;99.90
5689;DHT22;2869;50.432;8.680;2022-11-15T05:21:10;8.60;99.90
5689;DHT22;2869;50.432;8.680;2022-11-15T05:23:38;8.60;99.90
5689;DHT22;2869;50.432;8.680;2022-11-15T05:26:06;8.50;99.90
5689;DHT22;2869;50.432;8.680;2022-11-15T05:28:34;8.50;99.90
5689;DHT22;2869;50.432;8.680;2022-11-15T05:31:02;8.50;99.90
5689;DHT22;2869;50.432;8.680;2022-11-15T05:33:29;8.50;99.90
5689;DHT22;2869;50.432;8.680;2022-11-15T05:36:01;8.50;99.90
5689;DHT22;2869;50.432;8.680;2022-11-15T05:38:29;8.50;99.90
5689;DHT22;2869;50.432;8.680;2022-11-15T05:40:56;8.50;99.90
5689;DHT22;2869;50.432;8.680;2022-11-15T05:43:24;8.50;99.90
5689;DHT22;2869;50.432;8.680;2022-11-15T05:45:52;8.50;99.90
5689;DHT22;2869;50.432;8.680;2022-11-15T05:48:19;8.50;99.90
5689;DHT22;2869;50.432;8.680;2022-11-15T05:50:46;8.50;99.90
5689;DHT22;2869;50.432;8.680;2022-11-15T05:53:16;8.40;99.90
5689;DHT22;2869;50.432;8.680;2022-11-15T05:55:44;8.40;99.90
5689;DHT22;2869;50.432;8.680;2022-11-15T05:58:11;8.40;99.90
5689;DHT22;2869;50.432;8.680;2022-11-15T06:00:38;8.30;99.90
5689;DHT22;2869;50.432;8.680;2022-11-15T06:03:06;8.30;99.90
5689;DHT22;2869;50.432;8.680;2022-11-15T06:05:33;8.30;99.90
5689;DHT22;2869;50.432;8.680;2022-11-15T06:08:00;8.20;99.90
5689;DHT22;2869;50.432;8.680;2022-11-15T06:10:26;8.20;99.90
5689;DHT22;2869;50.432;8.680;2022-11-15T06:12:57;8.20;99.90
5689;DHT22;2869;50.432;8.680;2022-11-15T06:15:24;8.20;99.90
5689;DHT22;2869;50.432;8.680;2022-11-15T06:17:51;8.20;99.90
5689;DHT22;2869;50.432;8.680;2022-11-15T06:20:19;8.20;99.90
5689;DHT22;2869;50.432;8.680;2022-11-15T06:22:45;8.20;99.90
5689;DHT22;2869;50.432;8.680;2022-11-15T06:25:12;8.30;99.90
5689;DHT22;2869;50.432;8.680;2022-11-15T06:27:39;8.40;99.90
5689;DHT22;2869;50.432;8.680;2022-11-15T06:30:06;8.40;99.90
5689;DHT22;2869;50.432;8.680;2022-11-15T06:32:33;8.50;99.90
5689;DHT22;2869;50.432;8.680;2022-11-15T06:35:00;8.60;99.90
5689;DHT22;2869;50.432;8.680;2022-11-15T06:37:28;8.60;99.90
5689;DHT22;2869;50.432;8.680;2022-11-15T06:39:54;8.60;99.90
5689;DHT22;2869;50.432;8.680;2022-11-15T06:42:21;8.60;99.90
5689;DHT22;2869;50.432;8.680;2022-11-15T06:44:48;8.60;99.90
5689;DHT22;2869;50.432;8.680;2022-11-15T06:47:14;8.60;99.90
5689;DHT22;2869;50.432;8.680;2022-11-15T06:49:41;8.60;99.90
5689;DHT22;2869;50.432;8.680;2022-11-15T06:52:08;8.60;99.90
5689;DHT22;2869;50.432;8.680;2022-11-15T06:54:36;8.60;99.90
5689;DHT22;2869;50.432;8.680;2022-11-15T06:57:04;8.70;99.90
5689;DHT22;2869;50.432;8.680;2022-11-15T06:59:30;8.80;99.90
5689;DHT22;2869;50.432;8.680;2022-11-15T07:01:57;8.80;99.90
5689;DHT22;2869;50.432;8.680;2022-11-15T07:04:24;8.90;99.90
5689;DHT22;2869;50.432;8.680;2022-11-15T07:06:51;8.90;99.90
5689;DHT22;2869;50.432;8.680;2022-11-15T07:09:17;8.80;99.90
5689;DHT22;2869;50.432;8.680;2022-11-15T07:11:45;8.90;99.90
5689;DHT22;2869;50.432;8.680;2022-11-15T07:14:12;8.90;99.90
5689;DHT22;2869;50.432;8.680;2022-11-15T07:16:39;8.90;99.90
5689;DHT22;2869;50.432;8.680;2022-11-15T07:19:05;8.90;99.90
5689;DHT22;2869;50.432;8.680;2022-11-15T07:21:32;8.90;99.90
5689;DHT22;2869;50.432;8.680;2022-11-15T07:23:59;8.90;99.90
5689;DHT22;2869;50.432;8.680;2022-11-15T07:26:26;8.90;99.90
5689;DHT22;2869;50.432;8.680;2022-11-15T07:28:54;8.90;99.90
5689;DHT22;2869;50.432;8.680;2022-11-15T07:31:20;8.90;99.90
5689;DHT22;2869;50.432;8.680;2022-11-15T07:33:47;8.90;99.90
5689;DHT22;2869;50.432;8.680;2022-11-15T07:36:14;8.90;99.90
5689;DHT22;2869;50.432;8.680;2022-11-15T07:38:41;9.00;99.90
5689;DHT22;2869;50.432;8.680;2022-11-15T07:41:07;9.10;99.90
5689;DHT22;2869;50.432;8.680;2022-11-15T07:43:34;9.20;99.90
5689;DHT22;2869;50.432;8.680;2022-11-15T07:46:06;9.30;99.90
5689;DHT22;2869;50.432;8.680;2022-11-15T07:48:34;9.40;99.90
5689;DHT22;2869;50.432;8.680;2022-11-15T07:51:02;9.40;99.90
5689;DHT22;2869;50.432;8.680;2022-11-15T07:53:28;9.30;99.90
5689;DHT22;2869;50.432;8.680;2022-11-15T07:55:55;9.40;99.90
5689;DHT22;2869;50.432;8.680;2022-11-15T07:58:22;9.70;99.90
5689;DHT22;2869;50.432;8.680;2022-11-15T08:00:48;10.00;99.90
5689;DHT22;2869;50.432;8.680;2022-11-15T08:03:17;10.00;99.90
5689;DHT22;2869;50.432;8.680;2022-11-15T08:05:50;10.20;99.90
5689;DHT22;2869;50.432;8.680;2022-11-15T08:08:17;10.30;99.90
5689;DHT22;2869;50.432;8.680;2022-11-15T08:10:44;10.30;99.90
5689;DHT22;2869;50.432;8.680;2022-11-15T08:13:11;10.30;99.90
5689;DHT22;2869;50.432;8.680;2022-11-15T08:15:38;10.30;99.90
5689;DHT22;2869;50.432;8.680;2022-11-15T08:18:11;10.40;99.90
5689;DHT22;2869;50.432;8.680;2022-11-15T08:20:39;10.50;99.90
5689;DHT22;2869;50.432;8.680;2022-11-15T08:23:07;10.70;99.90
5689;DHT22;2869;50.432;8.680;2022-11-15T08:25:35;10.70;99.90
5689;DHT22;2869;50.432;8.680;2022-11-15T08:28:05;10.80;99.90
5689;DHT22;2869;50.432;8.680;2022-11-15T08:30:35;11.00;99.90
5689;DHT22;2869;50.432;8.680;2022-11-15T08:33:03;11.10;99.90
5689;DHT22;2869;50.432;8.680;2022-11-15T08:35:30;11.10;99.90
5689;DHT22;2869;50.432;8.680;2022-11-15T08:37:58;11.00;99.90
5689;DHT22;2869;50.432;8.680;2022-11-15T08:40:25;10.90;99.90
5689;DHT22;2869;50.432;8.680;2022-11-15T08:42:52;10.70;99.90
5689;DHT22;2869;50.432;8.680;2022-11-15T08:45:19;10.70;99.90
5689;DHT22;2869;50.432;8.680;2022-11-15T08:47:45;10.60;99.90
5689;DHT22;2869;50.432;8.680;2022-11-15T08:50:12;10.70;99.90
5689;DHT22;2869;50.432;8.680;2022-11-15T08:52:39;10.70;99.90
5689;DHT22;2869;50.432;8.680;2022-11-15T08:55:08;10.70;99.90
5689;DHT22;2869;50.432;8.680;2022-11-15T08:57:34;10.70;99.90
5689;DHT22;2869;50.432;8.680;2022-11-15T09:00:02;10.80;99.90
5689;DHT22;2869;50.432;8.680;2022-11-15T09:02:29;10.90;99.90
5689;DHT22;2869;50.432;8.680;2022-11-15T09:04:55;11.20;99.90
5689;DHT22;2869;50.432;8.680;2022-11-15T09:07:22;11.60;99.90
5689;DHT22;2869;50.432;8.680;2022-11-15T09:09:49;11.80;99.90
5689;DHT22;2869;50.432;8.680;2022-11-15T09:12:17;11.80;99.90
5689;DHT22;2869;50.432;8.680;2022-11-15T09:14:44;11.80;99.90
5689;DHT22;2869;50.432;8.680;2022-11-15T09:17:10;11.80;99.90
5689;DHT22;2869;50.432;8.680;2022-11-15T09:19:37;11.70;99.90
5689;DHT22;2869;50.432;8.680;2022-11-15T09:22:06;11.70;99.90
5689;DHT22;2869;50.432;8.680;2022-11-15T09:24:33;11.60;99.90
5689;DHT22;2869;50.432;8.680;2022-11-15T09:26:59;11.60;99.90
5689;DHT22;2869;50.432;8.680;2022-11-15T09:29:27;11.60;99.90
5689;DHT22;2869;50.432;8.680;2022-11-15T09:31:54;11.50;99.90
5689;DHT22;2869;50.432;8.680;2022-11-15T09:34:21;11.50;99.90
5689;DHT22;2869;50.432;8.680;2022-11-15T09:36:47;11.40;99.90
5689;DHT22;2869;50.432;8.680;2022-11-15T09:39:14;11.40;99.90
5689;DHT22;2869;50.432;8.680;2022-11-15T09:42:09;11.30;99.90
5689;DHT22;2869;50.432;8.680;2022-11-15T09:44:57;11.20;99.90
5689;DHT22;2869;50.432;8.680;2022-11-15T09:47:46;11.20;99.90
5689;DHT22;2869;50.432;8.680;2022-11-15T09:50:19;11.20;99.90
5689;DHT22;2869;50.432;8.680;2022-11-15T09:52:49;11.20;99.90
5689;DHT22;2869;50.432;8.680;2022-11-15T09:55:15;11.20;99.90
5689;DHT22;2869;50.432;8.680;2022-11-15T09:57:51;11.30;99.90
5689;DHT22;2869;50.432;8.680;2022-11-15T10:00:25;11.30;99.90
5689;DHT22;2869;50.432;8.680;2022-11-15T10:03:08;11.40;99.90
5689;DHT22;2869;50.432;8.680;2022-11-15T10:05:38;11.50;99.90
5689;DHT22;2869;50.432;8.680;2022-11-15T10:08:13;11.60;99.90
5689;DHT22;2869;50.432;8.680;2022-11-15T10:10:47;11.80;99.90
5689;DHT22;2869;50.432;8.680;2022-11-15T10:13:20;12.00;99.90
5689;DHT22;2869;50.432;8.680;2022-11-15T10:15:50;12.10;99.90
5689;DHT22;2869;50.432;8.680;2022-11-15T10:18:20;12.10;99.90
5689;DHT22;2869;50.432;8.680;2022-11-15T10:20:57;12.10;99.90
5689;DHT22;2869;50.432;8.680;2022-11-15T10:23:25;12.10;99.90
5689;DHT22;2869;50.432;8.680;2022-11-15T10:25:55;12.10;99.90
5689;DHT22;2869;50.432;8.680;2022-11-15T10:28:27;12.10;99.90
5689;DHT22;2869;50.432;8.680;2022-11-15T10:30:57;12.10;99.90
5689;DHT22;2869;50.432;8.680;2022-11-15T10:33:27;12.20;99.90
5689;DHT22;2869;50.432;8.680;2022-11-15T10:36:17;12.20;99.90
5689;DHT22;2869;50.432;8.680;2022-11-15T10:38:55;12.30;99.90
5689;DHT22;2869;50.432;8.680;2022-11-15T10:41:30;12.30;99.90
5689;DHT22;2869;50.432;8.680;2022-11-15T10:44:19;12.40;99.90
5689;DHT22;2869;50.432;8.680;2022-11-15T10:46:48;12.50;99.90
5689;DHT22;2869;50.432;8.680;2022-11-15T10:49:31;12.50;99.90
5689;DHT22;2869;50.432;8.680;2022-11-15T10:52:00;12.60;99.90
5689;DHT22;2869;50.432;8.680;2022-11-15T10:54:30;12.60;99.90
5689;DHT22;2869;50.432;8.680;2022-11-15T10:57:00;12.60;99.90
5689;DHT22;2869;50.432;8.680;2022-11-15T10:59:32;12.60;99.90
5689;DHT22;2869;50.432;8.680;2022-11-15T11:02:01;12.70;99.90
5689;DHT22;2869;50.432;8.680;2022-11-15T11:04:28;12.80;99.90
5689;DHT22;2869;50.432;8.680;2022-11-15T11:06:56;12.80;99.90
5689;DHT22;2869;50.432;8.680;2022-11-15T11:09:29;12.90;99.90
5689;DHT22;2869;50.432;8.680;2022-11-15T11:11:57;13.00;99.90
5689;DHT22;2869;50.432;8.680;2022-11-15T11:14:25;13.20;99.90
5689;DHT22;2869;50.432;8.680;2022-11-15T11:16:55;13.60;99.90
5689;DHT22;2869;50.432;8.680;2022-11-15T11:19:48;14.10;99.90
5689;DHT22;2869;50.432;8.680;2022-11-15T11:22:24;14.40;99.90
5689;DHT22;2869;50.432;8.680;2022-11-15T11:25:01;14.60;99.90
5689;DHT22;2869;50.432;8.680;2022-11-15T11:27:40;14.50;99.90
5689;DHT22;2869;50.432;8.680;2022-11-15T11:30:11;14.20;99.90
5689;DHT22;2869;50.432;8.680;2022-11-15T11:32:54;13.90;99.90
5689;DHT22;2869;50.432;8.680;2022-11-15T11:35:28;13.60;99.90
5689;DHT22;2869;50.432;8.680;2022-11-15T11:38:03;13.30;99.90
5689;DHT22;2869;50.432;8.680;2022-11-15T11:40:37;13.20;99.90
5689;DHT22;2869;50.432;8.680;2022-11-15T11:43:12;13.10;99.90
5689;DHT22;2869;50.432;8.680;2022-11-15T11:45:57;13.00;99.90
5689;DHT22;2869;50.432;8.680;2022-11-15T11:48:39;13.00;99.90
5689;DHT22;2869;50.432;8.680;2022-11-15T11:51:14;12.80;99.90
5689;DHT22;2869;50.432;8.680;2022-11-15T11:53:46;12.80;99.90
5689;DHT22;2869;50.432;8.680;2022-11-15T11:56:22;12.80;99.90
5689;DHT22;2869;50.432;8.680;2022-11-15T11:58:50;12.70;99.90
5689;DHT22;2869;50.432;8.680;2022-11-15T12:01:23;12.80;99.90
5689;DHT22;2869;50.432;8.680;2022-11-15T12:03:56;12.70;99.90
5689;DHT22;2869;50.432;8.680;2022-11-15T12:06:31;12.70;99.90
5689;DHT22;2869;50.432;8.680;2022-11-15T12:09:04;12.60;99.90
5689;DHT22;2869;50.432;8.680;2022-11-15T12:11:41;12.70;99.90
5689;DHT22;2869;50.432;8.680;2022-11-15T12:14:20;12.70;99.90
5689;DHT22;2869;50.432;8.680;2022-11-15T12:16:48;12.70;99.90
5689;DHT22;2869;50.432;8.680;2022-11-15T12:19:14;12.70;99.90
5689;DHT22;2869;50.432;8.680;2022-11-15T12:21:46;12.70;99.90
5689;DHT22;2869;50.432;8.680;2022-11-15T12:24:18;12.70;99.90
5689;DHT22;2869;50.432;8.680;2022-11-15T12:26:50;12.60;99.90
5689;DHT22;2869;50.432;8.680;2022-11-15T12:29:23;12.60;99.90
5689;DHT22;2869;50.432;8.680;2022-11-15T12:31:54;12.60;99.90
5689;DHT22;2869;50.432;8.680;2022-11-15T12:34:46;12.60;99.90
5689;DHT22;2869;50.432;8.680;2022-11-15T12:37:44;12.60;99.90
5689;DHT22;2869;50.432;8.680;2022-11-15T12:40:32;12.70;99.90
5689;DHT22;2869;50.432;8.680;2022-11-15T12:45:46;12.70;99.90
5689;DHT22;2869;50.432;8.680;2022-11-15T12:51:13;12.80;99.90
5689;DHT22;2869;50.432;8.680;2022-11-15T12:53:41;12.80;99.90
5689;DHT22;2869;50.432;8.680;2022-11-15T12:56:23;12.80;99.90
5689;DHT22;2869;50.432;8.680;2022-11-15T12:58:54;12.80;99.90
5689;DHT22;2869;50.432;8.680;2022-11-15T13:01:56;12.80;99.90
5689;DHT22;2869;50.432;8.680;2022-11-15T13:04:26;12.70;99.90
5689;DHT22;2869;50.432;8.680;2022-11-15T13:06:54;12.70;99.90
5689;DHT22;2869;50.432;8.680;2022-11-15T13:09:54;12.60;99.90
5689;DHT22;2869;50.432;8.680;2022-11-15T13:12:53;12.60;99.90
5689;DHT22;2869;50.432;8.680;2022-11-15T13:15:45;12.60;99.90
5689;DHT22;2869;50.432;8.680;2022-11-15T13:18:36;12.60;99.90
5689;DHT22;2869;50.432;8.680;2022-11-15T13:21:05;12.60;99.90
5689;DHT22;2869;50.432;8.680;2022-11-15T13:23:57;12.60;99.90
5689;DHT22;2869;50.432;8.680;2022-11-15T13:26:26;12.60;99.90
5689;DHT22;2869;50.432;8.680;2022-11-15T13:28:53;12.60;99.90
5689;DHT22;2869;50.432;8.680;2022-11-15T13:31:40;12.60;99.90
5689;DHT22;2869;50.432;8.680;2022-11-15T13:34:26;12.60;99.90
5689;DHT22;2869;50.432;8.680;2022-11-15T13:36:54;12.60;99.90
5689;DHT22;2869;50.432;8.680;2022-11-15T13:39:27;12.60;99.90
5689;DHT22;2869;50.432;8.680;2022-11-15T13:41:55;12.60;99.90
5689;DHT22;2869;50.432;8.680;2022-11-15T13:44:24;12.50;99.90
5689;DHT22;2869;50.432;8.680;2022-11-15T13:47:01;12.50;99.90
5689;DHT22;2869;50.432;8.680;2022-11-15T13:49:30;12.50;99.90
5689;DHT22;2869;50.432;8.680;2022-11-15T13:51:59;12.50;99.90
5689;DHT22;2869;50.432;8.680;2022-11-15T13:54:29;12.50;99.90
5689;DHT22;2869;50.432;8.680;2022-11-15T13:56:59;12.50;99.90
5689;DHT22;2869;50.432;8.680;2022-11-15T13:59:29;12.60;99.90
5689;DHT22;2869;50.432;8.680;2022-11-15T14:01:59;12.60;99.90
5689;DHT22;2869;50.432;8.680;2022-11-15T14:04:27;12.60;99.90
5689;DHT22;2869;50.432;8.680;2022-11-15T14:06:57;12.60;99.90
5689;DHT22;2869;50.432;8.680;2022-11-15T14:09:33;12.60;99.90
5689;DHT22;2869;50.432;8.680;2022-11-15T14:12:24;12.50;99.90
5689;DHT22;2869;50.432;8.680;2022-11-15T14:14:51;12.50;99.90
5689;DHT22;2869;50.432;8.680;2022-11-15T14:17:21;12.50;99.90
5689;DHT22;2869;50.432;8.680;2022-11-15T14:19:49;12.50;99.90
5689;DHT22;2869;50.432;8.680;2022-11-15T14:22:19;12.50;99.90
5689;DHT22;2869;50.432;8.680;2022-11-15T14:27:31;12.50;99.90
5689;DHT22;2869;50.432;8.680;2022-11-15T14:29:59;12.50;99.90
5689;DHT22;2869;50.432;8.680;2022-11-15T14:32:27;12.50;99.90
5689;DHT22;2869;50.432;8.680;2022-11-15T14:34:55;12.50;99.90
5689;DHT22;2869;50.432;8.680;2022-11-15T14:37:24;12.50;99.90
5689;DHT22;2869;50.432;8.680;2022-11-15T14:39:52;12.50;99.90
5689;DHT22;2869;50.432;8.680;2022-11-15T14:42:21;12.50;99.90
5689;DHT22;2869;50.432;8.680;2022-11-15T14:44:49;12.50;99.90
5689;DHT22;2869;50.432;8.680;2022-11-15T14:47:16;12.50;99.90
5689;DHT22;2869;50.432;8.680;2022-11-15T14:49:43;12.40;99.90
5689;DHT22;2869;50.432;8.680;2022-11-15T14:52:34;12.40;99.90
5689;DHT22;2869;50.432;8.680;2022-11-15T14:55:03;12.40;99.90
5689;DHT22;2869;50.432;8.680;2022-11-15T14:57:30;12.40;99.90
5689;DHT22;2869;50.432;8.680;2022-11-15T14:59:58;12.30;99.90
5689;DHT22;2869;50.432;8.680;2022-11-15T15:02:26;12.30;99.90
5689;DHT22;2869;50.432;8.680;2022-11-15T15:04:53;12.30;99.90
5689;DHT22;2869;50.432;8.680;2022-11-15T15:07:20;12.30;99.90
5689;DHT22;2869;50.432;8.680;2022-11-15T15:09:47;12.30;99.90
5689;DHT22;2869;50.432;8.680;2022-11-15T15:12:16;12.20;99.90
5689;DHT22;2869;50.432;8.680;2022-11-15T15:14:43;12.20;99.90
5689;DHT22;2869;50.432;8.680;2022-11-15T15:17:12;12.20;99.90
5689;DHT22;2869;50.432;8.680;2022-11-15T15:19:38;12.20;99.90
5689;DHT22;2869;50.432;8.680;2022-11-15T15:22:05;12.10;99.90
5689;DHT22;2869;50.432;8.680;2022-11-15T15:24:32;12.10;99.90
5689;DHT22;2869;50.432;8.680;2022-11-15T15:26:58;12.10;99.90
5689;DHT22;2869;50.432;8.680;2022-11-15T15:29:25;12.10;99.90
5689;DHT22;2869;50.432;8.680;2022-11-15T15:31:52;12.00;99.90
5689;DHT22;2869;50.432;8.680;2022-11-15T15:34:20;12.00;99.90
5689;DHT22;2869;50.432;8.680;2022-11-15T15:36:46;11.90;99.90
5689;DHT22;2869;50.432;8.680;2022-11-15T15:39:13;11.90;99.90
5689;DHT22;2869;50.432;8.680;2022-11-15T15:41:40;11.90;99.90
5689;DHT22;2869;50.432;8.680;2022-11-15T15:44:07;11.80;99.90
5689;DHT22;2869;50.432;8.680;2022-11-15T15:46:34;11.80;99.90
5689;DHT22;2869;50.432;8.680;2022-11-15T15:49:00;11.80;99.90
5689;DHT22;2869;50.432;8.680;2022-11-15T15:51:28;11.70;99.90
5689;DHT22;2869;50.432;8.680;2022-11-15T15:53:55;11.70;99.90
5689;DHT22;2869;50.432;8.680;2022-11-15T15:56:23;11.70;99.90
5689;DHT22;2869;50.432;8.680;2022-11-15T15:58:51;11.70;99.90
5689;DHT22;2869;50.432;8.680;2022-11-15T16:01:18;11.70;99.90
5689;DHT22;2869;50.432;8.680;2022-11-15T16:03:45;11.70;99.90
5689;DHT22;2869;50.432;8.680;2022-11-15T16:06:34;11.70;99.90
5689;DHT22;2869;50.432;8.680;2022-11-15T16:09:01;11.70;99.90
5689;DHT22;2869;50.432;8.680;2022-11-15T16:11:27;11.70;99.90
5689;DHT22;2869;50.432;8.680;2022-11-15T16:13:54;11.70;99.90
5689;DHT22;2869;50.432;8.680;2022-11-15T16:16:21;11.70;99.90
5689;DHT22;2869;50.432;8.680;2022-11-15T16:18:48;11.70;99.90
5689;DHT22;2869;50.432;8.680;2022-11-15T16:21:15;11.70;99.90
5689;DHT22;2869;50.432;8.680;2022-11-15T16:23:43;11.70;99.90
5689;DHT22;2869;50.432;8.680;2022-11-15T16:26:18;11.70;99.90
5689;DHT22;2869;50.432;8.680;2022-11-15T16:28:45;11.70;99.90
5689;DHT22;2869;50.432;8.680;2022-11-15T16:31:12;11.70;99.90
5689;DHT22;2869;50.432;8.680;2022-11-15T16:33:39;11.70;99.90
5689;DHT22;2869;50.432;8.680;2022-11-15T16:36:19;11.70;99.90
5689;DHT22;2869;50.432;8.680;2022-11-15T16:38:48;11.60;99.90
5689;DHT22;2869;50.432;8.680;2022-11-15T16:41:14;11.60;99.90
5689;DHT22;2869;50.432;8.680;2022-11-15T16:43:44;11.60;99.90